Time;durP1;ratioP1;P1;durP2;ratioP2;P2;SDS_P1;SDS_P2;PMS_P1;PMS_P2;Temp;Humidity;BMP_temperature;BMP_pressure;BME280_temperature;BME280_humidity;BME280_pressure;Samples;Min_cycle;Max_cycle;Signal;HPM_P1;HPM_P2
2023/10/16 00:02:14;;;;;;;;;;;;;;;7.05;100.00;99010.04;106170;1256;72509;-75
2023/10/16 00:04:44;;;;;;;;;;;;;;;7.04;100.00;99009.73;106200;1256;61827;-75
2023/10/16 00:07:14;;;;;;;;;;;;;;;7.03;100.00;99010.10;106573;1251;61334;-75
2023/10/16 00:09:40;;;;;;;;;;;;;;;7.02;100.00;99007.16;106185;1251;75133;-75
2023/10/16 00:12:07;;;;;;;;;;;;;;;7.02;100.00;99009.77;107836;1254;70888;-74
2023/10/16 00:14:35;;;;;;;;;;;;;;;7.03;100.00;99008.52;106559;1255;71722;-74
2023/10/16 00:17:04;;;;;;;;;;;;;;;7.04;100.00;99007.98;106526;1254;61369;-74
2023/10/16 00:19:34;;;;;;;;;;;;;;;7.06;100.00;99010.88;107913;1251;61266;-74
2023/10/16 00:22:01;;;;;;;;;;;;;;;7.05;100.00;99013.35;106496;1251;74457;-75
2023/10/16 00:24:28;;;;;;;;;;;;;;;7.03;100.00;99008.36;106198;1254;71779;-75
2023/10/16 00:27:00;;;;;;;;;;;;;;;7.01;100.00;99008.77;106467;1251;71267;-75
2023/10/16 00:29:35;;;;;;;;;;;;;;;6.94;100.00;99009.13;107544;1251;62466;-73
2023/10/16 00:32:07;;;;;;;;;;;;;;;6.86;100.00;99010.92;106604;1250;61212;-74
2023/10/16 00:34:33;;;;;;;;;;;;;;;6.81;100.00;99009.31;105497;1255;1003208;-75
2023/10/16 00:37:04;;;;;;;;;;;;;;;6.77;100.00;99006.29;106181;1255;69661;-75
2023/10/16 00:39:32;;;;;;;;;;;;;;;6.72;100.00;99007.11;106147;1257;72441;-75
2023/10/16 00:41:59;;;;;;;;;;;;;;;6.67;100.00;99006.71;105921;1254;1002870;-73
2023/10/16 00:44:29;;;;;;;;;;;;;;;6.66;100.00;99003.10;106172;1255;61298;-74
2023/10/16 00:46:56;;;;;;;;;;;;;;;6.65;100.00;99000.34;107438;1254;73157;-75
2023/10/16 00:49:23;;;;;;;;;;;;;;;6.64;100.00;98993.58;106178;1254;61155;-77
2023/10/16 00:51:50;;;;;;;;;;;;;;;6.62;100.00;98988.58;106048;1266;71156;-76
2023/10/16 00:54:27;;;;;;;;;;;;;;;6.59;100.00;98985.15;106138;1251;61257;-76
2023/10/16 00:57:07;;;;;;;;;;;;;;;6.60;100.00;98988.98;106536;1255;61432;-75
2023/10/16 00:59:35;;;;;;;;;;;;;;;6.60;100.00;98990.02;106164;1254;72637;-75
2023/10/16 01:02:07;;;;;;;;;;;;;;;6.55;100.00;98990.50;106194;1256;70949;-75
2023/10/16 01:04:34;;;;;;;;;;;;;;;6.48;100.00;98986.14;106182;1254;72661;-76
2023/10/16 01:07:01;;;;;;;;;;;;;;;6.44;100.00;98982.95;106684;1250;62003;-76
2023/10/16 01:09:35;;;;;;;;;;;;;;;6.38;100.00;98977.35;107015;1253;61345;-75
2023/10/16 01:12:11;;;;;;;;;;;;;;;6.34;100.00;98971.36;107896;1251;73561;-76
2023/10/16 01:14:37;;;;;;;;;;;;;;;6.30;100.00;98973.53;106422;1254;70927;-75
2023/10/16 01:17:08;;;;;;;;;;;;;;;6.28;100.00;98970.29;106369;1256;72347;-74
2023/10/16 01:19:36;;;;;;;;;;;;;;;6.31;100.00;98965.32;106154;1255;61816;-75
2023/10/16 01:22:03;;;;;;;;;;;;;;;6.33;100.00;98968.06;106184;1254;61337;-75
2023/10/16 01:24:30;;;;;;;;;;;;;;;6.31;100.00;98969.00;106064;1257;73665;-76
2023/10/16 01:27:10;;;;;;;;;;;;;;;6.31;100.00;98965.17;106189;1254;71363;-74
2023/10/16 01:29:37;;;;;;;;;;;;;;;6.33;100.00;98964.07;106164;1254;70479;-74
2023/10/16 01:32:04;;;;;;;;;;;;;;;6.36;100.00;98960.86;106207;1251;61753;-74
2023/10/16 01:34:32;;;;;;;;;;;;;;;6.37;100.00;98960.66;107047;1251;61646;-76
2023/10/16 01:37:08;;;;;;;;;;;;;;;6.37;100.00;98960.31;106463;1251;74665;-75
2023/10/16 01:40:12;;;;;;;;;;;;;;;6.38;100.00;98969.89;106170;1251;69698;-77
2023/10/16 01:42:23;;;;;;;;;;;;;;;6.37;100.00;98971.13;106533;1251;72542;-75
2023/10/16 01:44:53;;;;;;;;;;;;;;;6.32;100.00;98967.73;107006;1251;61391;-77
2023/10/16 01:47:20;;;;;;;;;;;;;;;6.29;100.00;98966.09;106290;1251;61109;-76
2023/10/16 01:49:50;;;;;;;;;;;;;;;6.26;100.00;98965.65;107038;1254;74686;-74
2023/10/16 01:52:17;;;;;;;;;;;;;;;6.24;100.00;98967.09;106987;1253;71113;-76
2023/10/16 01:54:47;;;;;;;;;;;;;;;6.22;100.00;98957.74;106284;1254;72514;-77
2023/10/16 01:57:14;;;;;;;;;;;;;;;6.23;100.00;98955.63;106978;1254;61362;-75
2023/10/16 01:59:45;;;;;;;;;;;;;;;6.25;100.00;98939.02;106440;1251;59649;-74
2023/10/16 02:02:12;;;;;;;;;;;;;;;6.28;100.00;98933.36;106436;1252;74602;-75
2023/10/16 02:04:39;;;;;;;;;;;;;;;6.33;100.00;98929.05;106971;1251;71517;-74
2023/10/16 02:07:09;;;;;;;;;;;;;;;6.39;100.00;98923.51;107112;1251;71190;-73
2023/10/16 02:09:39;;;;;;;;;;;;;;;6.43;100.00;98921.64;106599;1254;61287;-73
2023/10/16 02:12:10;;;;;;;;;;;;;;;6.47;100.00;98918.59;106198;1255;61101;-73
2023/10/16 02:14:40;;;;;;;;;;;;;;;6.50;100.00;98918.68;107275;1251;74687;-74
2023/10/16 02:17:14;;;;;;;;;;;;;;;6.53;100.00;98923.83;106085;1251;71357;-73
2023/10/16 02:19:43;;;;;;;;;;;;;;;6.54;100.00;98923.11;106201;1251;72768;-74
2023/10/16 02:22:14;;;;;;;;;;;;;;;6.52;100.00;98922.27;106161;1252;61250;-74
2023/10/16 02:24:40;;;;;;;;;;;;;;;6.50;100.00;98918.31;106185;1256;61330;-74
2023/10/16 02:27:12;;;;;;;;;;;;;;;6.49;100.00;98921.29;106174;1254;61272;-74
2023/10/16 02:29:45;;;;;;;;;;;;;;;6.50;100.00;98917.27;108321;1251;71232;-73
2023/10/16 02:32:13;;;;;;;;;;;;;;;6.51;100.00;98924.05;106477;1254;71414;-74
2023/10/16 02:34:41;;;;;;;;;;;;;;;6.51;100.00;98920.71;107393;1250;61811;-75
2023/10/16 02:37:11;;;;;;;;;;;;;;;6.49;100.00;98922.88;107767;1254;59349;-72
2023/10/16 02:39:38;;;;;;;;;;;;;;;6.46;100.00;98922.08;106173;1254;74644;-74
2023/10/16 02:42:07;;;;;;;;;;;;;;;6.46;100.00;98918.45;106424;1251;71374;-73
2023/10/16 02:44:38;;;;;;;;;;;;;;;6.46;100.00;98921.05;107496;1251;72120;-73
2023/10/16 02:47:07;;;;;;;;;;;;;;;6.44;100.00;98924.94;106278;1250;61365;-76
2023/10/16 02:49:34;;;;;;;;;;;;;;;6.41;100.00;98927.11;106168;1254;61170;-74
2023/10/16 02:52:01;;;;;;;;;;;;;;;6.37;100.00;98922.69;106205;1251;73581;-75
2023/10/16 02:54:29;;;;;;;;;;;;;;;6.33;100.00;98920.33;107055;1250;71132;-74
2023/10/16 02:56:59;;;;;;;;;;;;;;;6.32;100.00;98912.87;106400;1251;73222;-75
2023/10/16 02:59:31;;;;;;;;;;;;;;;6.35;100.00;98912.29;106298;1250;61142;-74
2023/10/16 03:01:58;;;;;;;;;;;;;;;6.35;100.00;98913.16;106182;1251;61360;-74
2023/10/16 03:04:27;;;;;;;;;;;;;;;6.33;100.00;98917.03;106386;1254;74671;-74
2023/10/16 03:06:54;;;;;;;;;;;;;;;6.28;100.00;98916.81;106590;1254;70207;-74
2023/10/16 03:09:28;;;;;;;;;;;;;;;6.21;100.00;98919.97;106164;1251;72632;-74
2023/10/16 03:12:04;;;;;;;;;;;;;;;6.14;100.00;98915.29;106564;1250;61259;-73
2023/10/16 03:14:44;;;;;;;;;;;;;;;6.07;100.00;98918.25;107396;1254;60172;-73
2023/10/16 03:17:26;;;;;;;;;;;;;;;6.02;100.00;98922.04;106166;1254;74510;-74
2023/10/16 03:19:55;;;;;;;;;;;;;;;5.96;100.00;98923.55;106569;1254;70974;-75
2023/10/16 03:22:22;;;;;;;;;;;;;;;5.91;100.00;98931.14;106552;1254;72614;-76
2023/10/16 03:24:48;;;;;;;;;;;;;;;5.86;100.00;98931.27;107754;1250;61687;-74
2023/10/16 03:27:28;;;;;;;;;;;;;;;5.82;100.00;98929.98;106575;1250;61268;-77
2023/10/16 03:29:56;;;;;;;;;;;;;;;5.80;100.00;98931.25;107137;1251;74885;-74
2023/10/16 03:32:23;;;;;;;;;;;;;;;5.78;100.00;98934.61;106547;1255;69638;-76
2023/10/16 03:34:51;;;;;;;;;;;;;;;5.75;100.00;98932.08;106155;1250;72664;-75
2023/10/16 03:37:18;;;;;;;;;;;;;;;5.72;100.00;98938.57;106032;1253;61414;-74
2023/10/16 03:39:46;;;;;;;;;;;;;;;5.72;100.00;98941.70;106172;1251;61273;-74
2023/10/16 03:42:17;;;;;;;;;;;;;;;5.73;100.00;98942.56;106543;1251;75063;-74
2023/10/16 03:44:44;;;;;;;;;;;;;;;5.71;100.00;98939.30;106142;1251;71120;-75
2023/10/16 03:47:12;;;;;;;;;;;;;;;5.70;100.00;98941.08;106523;1250;72777;-74
2023/10/16 03:49:38;;;;;;;;;;;;;;;5.67;100.00;98942.17;107146;1251;61283;-76
2023/10/16 03:52:07;;;;;;;;;;;;;;;5.65;100.00;98938.58;106169;1254;61184;-75
2023/10/16 03:54:39;;;;;;;;;;;;;;;5.64;100.00;98939.31;106186;1251;75125;-73
2023/10/16 03:57:09;;;;;;;;;;;;;;;5.63;100.00;98934.63;107412;1251;71167;-74
2023/10/16 03:59:38;;;;;;;;;;;;;;;5.63;100.00;98930.46;106861;1250;72627;-74
2023/10/16 04:02:05;;;;;;;;;;;;;;;5.63;100.00;98930.11;106617;1254;61283;-74
2023/10/16 04:04:32;;;;;;;;;;;;;;;5.61;100.00;98922.49;107503;1254;61340;-74
2023/10/16 04:06:59;;;;;;;;;;;;;;;5.61;100.00;98920.91;106570;1250;74604;-75
2023/10/16 04:09:33;;;;;;;;;;;;;;;5.63;100.00;98918.63;106166;1250;70928;-74
2023/10/16 04:12:06;;;;;;;;;;;;;;;5.65;100.00;98918.39;106198;1250;72732;-74
2023/10/16 04:14:44;;;;;;;;;;;;;;;5.66;100.00;98919.59;107267;1251;61353;-74
2023/10/16 04:17:11;;;;;;;;;;;;;;;5.67;100.00;98927.73;106559;1250;61149;-74
2023/10/16 04:19:52;;;;;;;;;;;;;;;5.66;100.00;98931.94;106164;1251;61375;-74
2023/10/16 04:22:25;;;;;;;;;;;;;;;5.65;100.00;98929.52;107415;1251;69842;-74
2023/10/16 04:24:55;;;;;;;;;;;;;;;5.64;100.00;98931.13;106171;1250;72659;-74
2023/10/16 04:27:29;;;;;;;;;;;;;;;5.63;100.00;98933.59;106157;1254;62334;-74
2023/10/16 04:32:55;;;;;;;;;;;;;;;5.59;100.00;98941.47;106152;1251;74983;-74
2023/10/16 04:43:38;;;;;;;;;;;;;;;5.63;100.00;98946.28;106200;1254;61299;-75
2023/10/16 04:46:16;;;;;;;;;;;;;;;5.62;100.00;98945.77;106409;1251;75223;-74
2023/10/16 04:48:50;;;;;;;;;;;;;;;5.64;100.00;98938.43;107916;1251;71288;-74
2023/10/16 04:51:22;;;;;;;;;;;;;;;5.65;100.00;98935.61;106591;1251;72826;-76
2023/10/16 04:54:27;;;;;;;;;;;;;;;5.68;100.00;98931.90;106484;1250;62145;-74
2023/10/16 05:02:40;;;;;;;;;;;;;;;5.73;100.00;98930.02;106806;1250;71158;-75
2023/10/16 05:08:30;;;;;;;;;;;;;;;5.75;100.00;98933.28;106141;1251;62046;-74
2023/10/16 05:10:51;;;;;;;;;;;;;;;5.74;100.00;98938.89;106570;1250;61241;-73
2023/10/16 05:17:07;;;;;;;;;;;;;;;5.75;100.00;98932.95;106190;1254;69923;-75
2023/10/16 05:19:03;;;;;;;;;;;;;;;5.77;100.00;98937.60;106094;1250;71792;-75
2023/10/16 06:16:40;;;;;;;;;;;;;;;6.09;100.00;98959.83;106065;1250;61453;-75
2023/10/16 06:19:14;;;;;;;;;;;;;;;6.07;100.00;98951.31;106150;1251;61149;-74
2023/10/16 06:21:46;;;;;;;;;;;;;;;6.06;100.00;98947.69;108262;1250;74645;-74
2023/10/16 06:24:26;;;;;;;;;;;;;;;6.02;100.00;98949.71;106599;1251;69967;-74
2023/10/16 06:26:57;;;;;;;;;;;;;;;5.98;100.00;98949.63;105382;1250;1003141;-74
2023/10/16 06:30:18;;;;;;;;;;;;;;;5.97;100.00;98955.94;107362;1250;61851;-74
2023/10/16 06:32:18;;;;;;;;;;;;;;;5.97;100.00;98956.98;106065;1250;61429;-74
2023/10/16 06:34:57;;;;;;;;;;;;;;;6.00;100.00;98955.70;106274;1254;74516;-74
2023/10/16 06:37:24;;;;;;;;;;;;;;;6.02;100.00;98954.05;106190;1250;71087;-74
2023/10/16 06:39:54;;;;;;;;;;;;;;;6.03;100.00;98958.38;105414;1250;1003752;-74
2023/10/16 06:42:21;;;;;;;;;;;;;;;6.03;100.00;98966.58;106642;1250;62007;-74
2023/10/16 06:44:54;;;;;;;;;;;;;;;6.03;100.00;98973.20;106201;1250;60488;-74
2023/10/16 06:47:35;;;;;;;;;;;;;;;6.05;100.00;98974.54;107487;1250;73458;-75
2023/10/16 06:50:24;;;;;;;;;;;;;;;6.11;100.00;98974.55;106891;1250;70915;-75
2023/10/16 06:52:49;;;;;;;;;;;;;;;6.19;100.00;98976.11;106144;1256;72511;-74
2023/10/16 06:55:16;;;;;;;;;;;;;;;6.20;100.00;98971.18;106532;1250;61426;-75
2023/10/16 06:57:44;;;;;;;;;;;;;;;6.21;100.00;98969.24;106738;1254;61207;-74
2023/10/16 07:00:22;;;;;;;;;;;;;;;6.25;100.00;98964.80;109566;1250;73138;-73
2023/10/16 07:02:54;;;;;;;;;;;;;;;6.31;100.00;98966.73;109706;1250;69920;-73
2023/10/16 07:05:24;;;;;;;;;;;;;;;6.35;100.00;98965.59;109569;1250;71189;-73
2023/10/16 07:07:56;;;;;;;;;;;;;;;6.36;100.00;98959.81;108854;1252;61395;-73
2023/10/16 07:10:25;;;;;;;;;;;;;;;6.38;100.00;98957.17;107831;1252;59157;-74
2023/10/16 07:12:59;;;;;;;;;;;;;;;6.37;100.00;98954.75;106568;1251;74700;-74
2023/10/16 07:15:29;;;;;;;;;;;;;;;6.35;100.00;98956.70;106508;1250;71004;-74
2023/10/16 07:17:56;;;;;;;;;;;;;;;6.34;100.00;98955.67;107011;1252;72535;-74
2023/10/16 07:20:29;;;;;;;;;;;;;;;6.35;100.00;98948.88;106091;1250;61359;-74
2023/10/16 07:23:01;;;;;;;;;;;;;;;6.37;100.00;98958.23;106580;1250;61126;-74
2023/10/16 07:28:15;;;;;;;;;;;;;;;6.42;100.00;98957.39;106478;1252;71378;-74
2023/10/16 07:30:45;;;;;;;;;;;;;;;6.46;100.00;98963.73;106471;1253;71879;-74
2023/10/16 07:33:14;;;;;;;;;;;;;;;6.47;100.00;98957.95;106203;1250;62189;-74
2023/10/16 07:35:41;;;;;;;;;;;;;;;6.48;100.00;98956.52;106301;1251;61177;-74
2023/10/16 07:38:09;;;;;;;;;;;;;;;6.55;100.00;98960.52;106156;1250;74632;-75
2023/10/16 07:40:37;;;;;;;;;;;;;;;6.65;100.00;98963.56;107446;1252;71064;-74
2023/10/16 07:43:04;;;;;;;;;;;;;;;6.74;100.00;98973.42;106633;1250;72627;-75
2023/10/16 07:45:32;;;;;;;;;;;;;;;6.80;100.00;98974.13;107612;1250;61565;-72
2023/10/16 07:48:08;;;;;;;;;;;;;;;6.84;100.00;98968.78;107180;1250;61293;-73
2023/10/16 07:50:38;;;;;;;;;;;;;;;6.84;100.00;98966.33;106155;1256;74551;-73
2023/10/16 07:53:07;;;;;;;;;;;;;;;6.89;100.00;98970.91;106221;1250;71015;-73
2023/10/16 07:55:40;;;;;;;;;;;;;;;6.94;100.00;98972.88;106172;1250;72694;-75
2023/10/16 07:58:16;;;;;;;;;;;;;;;6.96;100.00;98970.55;106163;1250;61777;-74
2023/10/16 08:00:59;;;;;;;;;;;;;;;6.95;100.00;98964.81;106265;1250;61372;-75
2023/10/16 08:03:27;;;;;;;;;;;;;;;6.97;100.00;98966.66;107477;1252;74651;-75
2023/10/16 08:05:54;;;;;;;;;;;;;;;6.99;100.00;98965.23;106221;1250;71179;-73
2023/10/16 08:08:27;;;;;;;;;;;;;;;7.01;100.00;98960.63;106584;1250;72645;-74
2023/10/16 08:10:59;;;;;;;;;;;;;;;7.05;100.00;98957.39;107531;1250;61286;-74
2023/10/16 08:13:27;;;;;;;;;;;;;;;7.12;100.00;98964.35;106602;1250;61353;-74
2023/10/16 08:15:55;;;;;;;;;;;;;;;7.18;100.00;98965.91;106562;1251;74672;-73
2023/10/16 08:18:25;;;;;;;;;;;;;;;7.21;100.00;98966.34;106555;1251;71231;-74
2023/10/16 08:21:04;;;;;;;;;;;;;;;7.21;100.00;98968.06;106201;1254;72706;-75
2023/10/16 08:23:34;;;;;;;;;;;;;;;7.23;100.00;98969.06;106529;1250;61678;-73
2023/10/16 08:26:14;;;;;;;;;;;;;;;7.28;100.00;98966.46;107440;1250;61670;-73
2023/10/16 08:28:47;;;;;;;;;;;;;;;7.34;100.00;98963.31;107000;1250;75142;-73
2023/10/16 08:31:23;;;;;;;;;;;;;;;7.44;100.00;98961.97;107264;1250;71113;-73
2023/10/16 08:33:50;;;;;;;;;;;;;;;7.59;100.00;98959.93;106269;1250;72471;-74
2023/10/16 08:36:20;;;;;;;;;;;;;;;7.74;100.00;98961.73;106124;1250;61704;-73
2023/10/16 08:38:52;;;;;;;;;;;;;;;7.86;100.00;98953.35;106244;1254;61682;-73
2023/10/16 08:41:21;;;;;;;;;;;;;;;7.94;100.00;98946.09;106668;1254;74528;-73
2023/10/16 08:44:03;;;;;;;;;;;;;;;8.05;100.00;98944.13;106219;1250;70318;-74
2023/10/16 08:46:30;;;;;;;;;;;;;;;8.19;100.00;98941.04;107163;1250;72791;-73
2023/10/16 08:48:57;;;;;;;;;;;;;;;8.30;100.00;98939.80;106169;1254;62397;-76
2023/10/16 08:51:28;;;;;;;;;;;;;;;8.32;100.00;98929.95;106187;1250;62111;-74
2023/10/16 08:54:05;;;;;;;;;;;;;;;8.31;100.00;98929.64;107443;1250;72842;-75
2023/10/16 08:56:32;;;;;;;;;;;;;;;8.35;100.00;98929.15;106652;1250;70806;-74
2023/10/16 08:59:01;;;;;;;;;;;;;;;8.39;100.00;98923.24;106249;1254;71421;-73
2023/10/16 09:01:28;;;;;;;;;;;;;;;8.43;100.00;98920.16;106233;1250;62164;-74
2023/10/16 09:04:05;;;;;;;;;;;;;;;8.48;100.00;98910.88;106115;1250;61168;-73
2023/10/16 09:06:38;;;;;;;;;;;;;;;8.66;100.00;98914.78;106598;1254;76228;-75
2023/10/16 09:09:13;;;;;;;;;;;;;;;8.83;100.00;98907.17;107344;1250;72134;-73
2023/10/16 09:11:40;;;;;;;;;;;;;;;8.99;100.00;98905.38;106335;1254;71476;-73
2023/10/16 09:14:10;;;;;;;;;;;;;;;9.16;100.00;98900.33;106025;1253;61331;-73
2023/10/16 09:16:43;;;;;;;;;;;;;;;9.36;100.00;98892.73;106115;1251;62974;-73
2023/10/16 09:19:18;;;;;;;;;;;;;;;9.43;100.00;98882.98;106290;1250;72464;-74
2023/10/16 09:21:44;;;;;;;;;;;;;;;9.43;100.00;98866.90;107604;1250;70067;-75
2023/10/16 09:24:12;;;;;;;;;;;;;;;9.42;100.00;98860.80;106214;1250;71179;-75
2023/10/16 09:26:44;;;;;;;;;;;;;;;9.42;100.00;98859.38;106072;1250;61435;-73
2023/10/16 09:29:14;;;;;;;;;;;;;;;9.42;100.00;98863.98;107469;1250;61233;-74
2023/10/16 09:31:44;;;;;;;;;;;;;;;9.42;100.00;98871.81;106430;1250;73378;-76
2023/10/16 09:34:17;;;;;;;;;;;;;;;9.33;100.00;98869.76;106242;1253;69639;-75
2023/10/16 09:36:48;;;;;;;;;;;;;;;9.19;100.00;98872.73;107817;1250;71141;-74
2023/10/16 09:39:18;;;;;;;;;;;;;;;9.12;100.00;98868.11;106041;1258;61270;-75
2023/10/16 09:41:51;;;;;;;;;;;;;;;9.10;100.00;98867.83;107461;1250;61257;-73
2023/10/16 09:44:36;;;;;;;;;;;;;;;9.14;100.00;98865.08;106643;1254;74375;-75
2023/10/16 09:47:25;;;;;;;;;;;;;;;9.24;100.00;98874.10;106190;1250;70944;-74
2023/10/16 09:49:50;;;;;;;;;;;;;;;9.41;100.00;98876.06;106197;1250;72892;-73
2023/10/16 09:52:20;;;;;;;;;;;;;;;9.53;100.00;98882.57;106528;1252;61368;-74
2023/10/16 09:54:48;;;;;;;;;;;;;;;9.53;100.00;98865.95;106468;1251;61342;-76
2023/10/16 09:57:19;;;;;;;;;;;;;;;9.40;100.00;98864.75;106617;1256;74529;-74
2023/10/16 09:59:46;;;;;;;;;;;;;;;9.36;100.00;98871.91;107584;1250;71030;-75
2023/10/16 10:02:25;;;;;;;;;;;;;;;9.47;100.00;98870.55;106755;1253;73199;-74
2023/10/16 10:05:08;;;;;;;;;;;;;;;9.66;100.00;98873.48;107072;1251;61279;-74
2023/10/16 10:07:38;;;;;;;;;;;;;;;9.72;100.00;98867.12;106628;1250;61238;-74
2023/10/16 10:12:52;;;;;;;;;;;;;;;9.62;100.00;98867.86;106203;1253;69132;-74
2023/10/16 10:15:19;;;;;;;;;;;;;;;9.54;100.00;98869.09;106668;1250;72653;-74
2023/10/16 10:17:46;;;;;;;;;;;;;;;9.46;100.00;98872.70;107480;1250;61234;-74
2023/10/16 10:23:05;;;;;;;;;;;;;;;9.34;100.00;98884.05;106186;1251;73695;-74
2023/10/16 10:25:41;;;;;;;;;;;;;;;9.26;100.00;98883.63;107437;1250;71084;-73
2023/10/16 10:28:22;;;;;;;;;;;;;;;9.27;100.00;98878.01;106222;1253;72668;-75
2023/10/16 10:30:50;;;;;;;;;;;;;;;9.47;100.00;98874.40;106378;1255;61274;-74
2023/10/16 10:33:36;;;;;;;;;;;;;;;9.73;100.00;98875.31;107102;1253;61249;-74
2023/10/16 10:36:21;;;;;;;;;;;;;;;9.85;100.00;98861.29;107444;1250;73718;-75
2023/10/16 10:38:48;;;;;;;;;;;;;;;9.84;100.00;98856.46;106565;1253;197619;-74
2023/10/16 10:41:15;;;;;;;;;;;;;;;9.81;100.00;98869.88;106227;1250;72646;-73
2023/10/16 10:43:46;;;;;;;;;;;;;;;9.76;100.00;98865.02;107830;1250;61234;-73
2023/10/16 10:46:14;;;;;;;;;;;;;;;9.70;100.00;98867.36;106709;1250;61154;-74
2023/10/16 10:48:41;;;;;;;;;;;;;;;9.63;100.00;98864.86;106265;1250;73755;-74
2023/10/16 10:51:13;;;;;;;;;;;;;;;9.56;100.00;98873.55;106228;1250;71073;-76
2023/10/16 10:53:56;;;;;;;;;;;;;;;9.44;100.00;98880.33;107498;1250;72708;-75
2023/10/16 10:56:29;;;;;;;;;;;;;;;9.31;100.00;98882.24;106789;1250;61240;-75
2023/10/16 10:58:56;;;;;;;;;;;;;;;9.28;100.00;98882.88;106058;1256;61154;-74
2023/10/16 11:01:29;;;;;;;;;;;;;;;9.30;100.00;98884.02;107043;1254;73768;-73
2023/10/16 11:03:56;;;;;;;;;;;;;;;9.28;100.00;98889.68;106201;1254;72690;-74
2023/10/16 11:06:38;;;;;;;;;;;;;;;9.21;100.00;98885.59;106686;1250;72719;-74
2023/10/16 11:09:11;;;;;;;;;;;;;;;9.15;100.00;98891.25;106408;1250;61257;-75
2023/10/16 11:11:39;;;;;;;;;;;;;;;9.11;100.00;98889.67;107084;1250;61227;-73
2023/10/16 11:14:07;;;;;;;;;;;;;;;9.06;100.00;98893.37;106158;1254;74464;-75
2023/10/16 11:16:41;;;;;;;;;;;;;;;9.00;100.00;98890.10;106192;1250;71122;-73
2023/10/16 11:19:09;;;;;;;;;;;;;;;8.92;100.00;98890.55;106263;1250;72675;-73
2023/10/16 11:21:47;;;;;;;;;;;;;;;8.84;100.00;98891.40;106254;1254;61157;-75
2023/10/16 11:24:14;;;;;;;;;;;;;;;8.75;100.00;98892.26;107741;1250;61256;-74
2023/10/16 11:26:45;;;;;;;;;;;;;;;8.69;100.00;98897.89;106173;1254;74683;-73
2023/10/16 11:29:12;;;;;;;;;;;;;;;8.68;100.00;98898.46;106519;1250;71286;-72
2023/10/16 11:31:44;;;;;;;;;;;;;;;8.66;100.00;98890.99;107014;1250;72511;-74
2023/10/16 11:34:13;;;;;;;;;;;;;;;8.64;100.00;98901.95;106576;1250;61242;-74
2023/10/16 11:36:40;;;;;;;;;;;;;;;8.61;100.00;98908.33;106221;1254;61270;-74
2023/10/16 11:39:19;;;;;;;;;;;;;;;8.62;100.00;98907.24;106257;1250;74330;-74
2023/10/16 11:41:49;;;;;;;;;;;;;;;8.63;100.00;98909.48;106199;1254;69137;-74
2023/10/16 11:44:16;;;;;;;;;;;;;;;8.64;100.00;98914.32;106224;1250;71650;-74
2023/10/16 11:46:46;;;;;;;;;;;;;;;8.62;100.00;98921.06;106613;1250;61327;-73
2023/10/16 11:51:47;;;;;;;;;;;;;;;8.45;100.00;98923.58;106632;1254;73797;-74
2023/10/16 11:54:20;;;;;;;;;;;;;;;8.39;100.00;98928.13;107543;1250;69683;-74
2023/10/16 11:56:47;;;;;;;;;;;;;;;8.32;100.00;98932.58;107175;1250;71669;-74
2023/10/16 11:59:15;;;;;;;;;;;;;;;8.25;100.00;98926.15;106171;1250;61339;-74
2023/10/16 12:01:44;;;;;;;;;;;;;;;8.22;100.00;98927.69;106233;1256;61336;-73
2023/10/16 12:04:30;;;;;;;;;;;;;;;8.22;100.00;98930.64;106340;1253;74986;-73
2023/10/16 12:06:58;;;;;;;;;;;;;;;8.22;100.00;98934.31;106633;1254;72051;-74
2023/10/16 12:09:27;;;;;;;;;;;;;;;8.23;100.00;98933.60;106201;1255;72478;-74
2023/10/16 12:11:54;;;;;;;;;;;;;;;8.23;100.00;98937.92;107479;1250;61325;-74
2023/10/16 12:14:22;;;;;;;;;;;;;;;8.22;100.00;98944.10;107005;1251;60260;-74
2023/10/16 12:16:48;;;;;;;;;;;;;;;8.16;100.00;98944.45;106570;1250;73731;-73
2023/10/16 12:19:16;;;;;;;;;;;;;;;8.08;100.00;98947.52;106149;1250;71469;-75
2023/10/16 12:21:43;;;;;;;;;;;;;;;8.01;100.00;98954.23;107171;1250;72141;-74
2023/10/16 12:24:13;;;;;;;;;;;;;;;7.94;100.00;98952.02;106615;1250;61234;-74
2023/10/16 12:26:42;;;;;;;;;;;;;;;7.88;100.00;98956.58;107110;1250;61344;-75
2023/10/16 12:29:11;;;;;;;;;;;;;;;7.85;100.00;98959.13;107123;1254;74725;-74
2023/10/16 12:31:41;;;;;;;;;;;;;;;7.81;100.00;98965.16;106222;1254;71097;-74
2023/10/16 12:34:11;;;;;;;;;;;;;;;7.78;100.00;98964.92;106238;1250;72536;-74
2023/10/16 12:36:38;;;;;;;;;;;;;;;7.74;100.00;98971.67;106397;1251;61247;-74
2023/10/16 12:39:13;;;;;;;;;;;;;;;7.69;100.00;98976.04;106488;1255;61267;-72
2023/10/16 12:41:41;;;;;;;;;;;;;;;7.61;100.00;98991.80;106255;1254;75286;-74
2023/10/16 12:44:11;;;;;;;;;;;;;;;7.52;100.00;98996.30;106305;1250;71853;-73
2023/10/16 12:46:38;;;;;;;;;;;;;;;7.42;100.00;99007.73;106241;1256;71648;-74
2023/10/16 12:49:08;;;;;;;;;;;;;;;7.33;100.00;99004.53;107389;1250;61189;-73
2023/10/16 12:51:35;;;;;;;;;;;;;;;7.27;100.00;99008.19;106144;1256;61253;-76
2023/10/16 12:54:03;;;;;;;;;;;;;;;7.25;100.00;99014.71;107890;1250;74723;-74
2023/10/16 12:56:31;;;;;;;;;;;;;;;7.23;100.00;99015.64;106234;1250;71800;-74
2023/10/16 12:59:01;;;;;;;;;;;;;;;7.22;100.00;99022.65;107138;1251;73981;-73
2023/10/16 13:01:28;;;;;;;;;;;;;;;7.21;100.00;99028.60;106776;1250;61635;-75
2023/10/16 13:04:06;;;;;;;;;;;;;;;7.17;100.00;99033.96;106268;1253;60462;-75
2023/10/16 13:06:34;;;;;;;;;;;;;;;7.09;100.00;99037.65;106223;1250;74918;-73
2023/10/16 13:09:02;;;;;;;;;;;;;;;6.98;100.00;99043.17;106224;1250;70192;-75
2023/10/16 13:11:29;;;;;;;;;;;;;;;6.90;100.00;99044.63;106616;1250;72637;-74
2023/10/16 13:13:56;;;;;;;;;;;;;;;6.83;100.00;99049.52;106658;1254;61388;-75
2023/10/16 13:16:26;;;;;;;;;;;;;;;6.79;100.00;99052.27;106463;1254;61730;-75
2023/10/16 13:18:57;;;;;;;;;;;;;;;6.75;100.00;99054.96;106186;1250;73975;-74
2023/10/16 13:21:32;;;;;;;;;;;;;;;6.74;100.00;99061.30;107478;1253;69240;-73
2023/10/16 13:24:16;;;;;;;;;;;;;;;6.72;100.00;99051.56;106205;1255;72897;-75
2023/10/16 13:26:44;;;;;;;;;;;;;;;6.70;100.00;99053.34;106132;1250;61244;-75
2023/10/16 13:29:12;;;;;;;;;;;;;;;6.67;100.00;99061.97;106273;1250;61232;-76
2023/10/16 13:31:40;;;;;;;;;;;;;;;6.63;100.00;99066.08;106159;1250;74626;-74
2023/10/16 13:34:15;;;;;;;;;;;;;;;6.60;100.00;99071.38;106283;1255;70347;-74
2023/10/16 13:37:00;;;;;;;;;;;;;;;6.55;100.00;99077.27;106169;1250;72359;-73
2023/10/16 13:39:31;;;;;;;;;;;;;;;6.51;100.00;99071.09;106183;1251;61342;-74
2023/10/16 13:41:58;;;;;;;;;;;;;;;6.49;100.00;99075.52;106198;1254;61342;-74
2023/10/16 13:44:25;;;;;;;;;;;;;;;6.49;100.00;99072.21;107349;1250;74731;-73
2023/10/16 13:46:52;;;;;;;;;;;;;;;6.49;100.00;99080.73;106668;1254;70255;-74
2023/10/16 13:49:19;;;;;;;;;;;;;;;6.49;100.00;99085.45;106187;1250;72667;-74
2023/10/16 13:51:47;;;;;;;;;;;;;;;6.47;100.00;99088.79;106236;1250;61122;-73
2023/10/16 13:54:14;;;;;;;;;;;;;;;6.44;100.00;99096.70;106165;1253;61125;-75
2023/10/16 13:56:41;;;;;;;;;;;;;;;6.43;100.00;99095.49;106659;1250;74862;-76
2023/10/16 13:59:08;;;;;;;;;;;;;;;6.42;100.00;99097.98;106572;1254;69005;-75
2023/10/16 14:01:43;;;;;;;;;;;;;;;6.40;100.00;99102.91;106165;1250;72925;-71
2023/10/16 14:04:21;;;;;;;;;;;;;;;6.40;100.00;99114.41;106171;1250;61444;-73
2023/10/16 14:06:54;;;;;;;;;;;;;;;6.39;100.00;99111.48;106215;1256;61220;-76
2023/10/16 14:09:21;;;;;;;;;;;;;;;6.37;100.00;99111.00;107431;1250;75317;-74
2023/10/16 14:11:48;;;;;;;;;;;;;;;6.35;100.00;99111.39;106688;1250;70256;-77
2023/10/16 14:14:19;;;;;;;;;;;;;;;6.33;100.00;99113.34;106694;1250;72620;-74
2023/10/16 14:16:46;;;;;;;;;;;;;;;6.32;100.00;99111.63;106196;1250;61345;-74
2023/10/16 14:19:13;;;;;;;;;;;;;;;6.32;100.00;99116.50;106651;1254;60466;-76
2023/10/16 14:21:41;;;;;;;;;;;;;;;6.30;100.00;99122.46;106187;1251;73601;-75
2023/10/16 14:24:08;;;;;;;;;;;;;;;6.28;100.00;99121.47;106204;1256;68951;-78